Time;durP1;ratioP1;P1;durP2;ratioP2;P2;SDS_P1;SDS_P2;PMS_P1;PMS_P2;Temp;Humidity;BMP_temperature;BMP_pressure;BME280_temperature;BME280_humidity;BME280_pressure;Samples;Min_cycle;Max_cycle;Signal;HPM_P1;HPM_P2
2023/09/06 00:01:23;;;;;;;4.50;3.00;;;16.40;1.00;;;;;;4990399;28;20125;-78
2023/09/06 00:03:49;;;;;;;3.28;2.58;;;16.40;1.00;;;;;;4976335;28;20048;-78
2023/09/06 00:06:16;;;;;;;3.38;2.75;;;16.40;1.00;;;;;;5001749;28;20093;-78
2023/09/06 00:08:41;;;;;;;4.82;2.65;;;16.40;1.00;;;;;;4990338;28;20042;-78
2023/09/06 00:11:07;;;;;;;3.83;2.45;;;16.40;1.00;;;;;;4968051;28;20219;-78
2023/09/06 00:13:34;;;;;;;3.72;3.00;;;16.30;1.00;;;;;;4982407;28;20064;-78
2023/09/06 00:16:03;;;;;;;3.85;2.63;;;16.30;1.00;;;;;;4977695;28;20043;-78
2023/09/06 00:18:30;;;;;;;5.78;3.70;;;16.30;1.00;;;;;;4990389;28;20037;-77
2023/09/06 00:20:57;;;;;;;3.75;2.85;;;16.20;1.00;;;;;;4988571;28;20113;-77
2023/09/06 00:23:24;;;;;;;5.72;2.83;;;16.20;1.00;;;;;;4987391;28;20045;-77
2023/09/06 00:25:51;;;;;;;3.30;2.70;;;16.20;1.00;;;;;;4988434;28;20042;-77
2023/09/06 00:28:19;;;;;;;3.83;2.38;;;16.20;1.00;;;;;;4988477;28;20042;-77
2023/09/06 00:30:45;;;;;;;3.53;2.65;;;16.10;1.00;;;;;;5004612;28;20073;-78
2023/09/06 00:33:11;;;;;;;3.33;2.50;;;16.10;1.00;;;;;;4987121;28;20050;-78
2023/09/06 00:35:41;;;;;;;1.60;1.50;;;16.10;3.70;;;;;;4998510;28;20113;-77
2023/09/06 00:38:07;;;;;;;1.98;1.73;;;16.00;10.30;;;;;;4984813;28;20034;-78
2023/09/06 00:40:37;;;;;;;2.47;1.80;;;16.10;7.30;;;;;;4986454;28;20081;-78
2023/09/06 00:43:04;;;;;;;1.77;1.30;;;16.00;3.50;;;;;;4985734;28;20069;-78
2023/09/06 00:45:44;;;;;;;1.23;1.13;;;16.00;10.70;;;;;;4986805;28;20046;-77
2023/09/06 00:48:16;;;;;;;1.50;1.33;;;16.00;17.60;;;;;;4988858;28;20056;-78
2023/09/06 00:50:43;;;;;;;2.78;1.60;;;16.00;16.70;;;;;;4988011;28;20046;-77
2023/09/06 00:53:09;;;;;;;3.25;1.90;;;15.90;11.20;;;;;;4989001;28;20085;-77
2023/09/06 00:55:37;;;;;;;3.50;1.67;;;15.80;9.30;;;;;;4986008;28;20034;-77
2023/09/06 00:58:04;;;;;;;2.00;1.63;;;15.80;12.60;;;;;;4970466;28;20039;-77
2023/09/06 01:00:32;;;;;;;2.90;1.40;;;15.70;17.40;;;;;;4970045;28;20142;-77
2023/09/06 01:02:58;;;;;;;1.65;1.55;;;15.70;22.20;;;;;;4988566;28;20208;-76
2023/09/06 01:05:30;;;;;;;1.92;1.45;;;15.70;25.30;;;;;;4988033;28;20128;-77
2023/09/06 01:08:03;;;;;;;1.63;1.52;;;15.60;28.20;;;;;;4983314;28;20287;-77
2023/09/06 01:10:28;;;;;;;3.35;1.65;;;15.60;30.40;;;;;;4983976;28;20078;-77
2023/09/06 01:12:55;;;;;;;1.70;1.60;;;15.60;27.70;;;;;;4981674;28;20046;-77
2023/09/06 01:15:22;;;;;;;1.90;1.48;;;15.50;28.10;;;;;;4990493;28;20049;-77
2023/09/06 01:17:50;;;;;;;1.50;1.25;;;15.50;29.30;;;;;;4978236;28;20456;-77
2023/09/06 01:20:31;;;;;;;1.95;1.55;;;15.40;32.00;;;;;;4983427;28;20038;-77
2023/09/06 01:23:24;;;;;;;1.50;1.40;;;15.30;32.60;;;;;;4992583;28;20045;-77
2023/09/06 01:25:50;;;;;;;2.40;1.58;;;15.30;33.60;;;;;;4982380;28;20042;-77
2023/09/06 01:28:17;;;;;;;1.90;1.70;;;15.20;38.30;;;;;;4972761;28;20050;-76
2023/09/06 01:30:42;;;;;;;1.60;1.40;;;15.20;40.40;;;;;;4988401;28;20058;-77
2023/09/06 01:33:08;;;;;;;2.22;1.77;;;15.20;45.00;;;;;;5002633;28;20062;-77
2023/09/06 01:35:34;;;;;;;1.98;1.58;;;15.20;49.60;;;;;;4988312;28;20130;-76
2023/09/06 01:37:59;;;;;;;1.67;1.55;;;15.10;50.00;;;;;;4977010;28;20382;-77
2023/09/06 01:40:26;;;;;;;1.90;1.50;;;15.10;53.90;;;;;;4999642;28;20125;-77
2023/09/06 01:42:52;;;;;;;2.53;1.45;;;15.10;58.10;;;;;;4970363;28;20034;-77
2023/09/06 01:45:18;;;;;;;2.85;1.50;;;15.10;60.80;;;;;;4977675;28;20143;-77
2023/09/06 01:47:46;;;;;;;1.73;1.38;;;15.10;61.00;;;;;;4985650;28;20049;-77
2023/09/06 01:50:13;;;;;;;1.75;1.23;;;15.00;63.10;;;;;;4986550;28;20049;-77
2023/09/06 01:52:40;;;;;;;1.10;1.00;;;15.10;73.70;;;;;;4986830;28;20468;-76
2023/09/06 01:55:08;;;;;;;0.90;0.80;;;15.00;76.50;;;;;;4992318;28;20050;-77
2023/09/06 01:57:34;;;;;;;0.93;0.77;;;15.00;77.70;;;;;;4986682;28;20038;-76
2023/09/06 02:00:00;;;;;;;0.80;0.77;;;15.00;74.10;;;;;;4971669;28;20038;-77
2023/09/06 02:02:25;;;;;;;1.92;0.80;;;14.90;73.70;;;;;;4969410;28;20548;-77
2023/09/06 02:04:51;;;;;;;1.30;1.00;;;14.90;72.10;;;;;;4985932;28;20797;-77
2023/09/06 02:07:17;;;;;;;5.53;1.20;;;14.80;73.20;;;;;;4983579;28;20051;-76
2023/09/06 02:09:42;;;;;;;0.82;0.80;;;14.80;74.20;;;;;;4971007;28;20084;-77
2023/09/06 02:12:08;;;;;;;1.02;0.93;;;14.70;78.40;;;;;;4992991;28;20576;-77
2023/09/06 02:14:34;;;;;;;2.95;0.90;;;14.70;82.90;;;;;;4970770;28;20074;-77
2023/09/06 02:17:00;;;;;;;1.55;0.85;;;14.70;83.90;;;;;;4985850;28;20548;-77
2023/09/06 02:19:26;;;;;;;0.88;0.70;;;14.60;86.10;;;;;;4972661;28;20255;-76
2023/09/06 02:21:52;;;;;;;1.30;0.80;;;14.60;88.70;;;;;;4989488;28;20038;-77
2023/09/06 02:24:18;;;;;;;1.83;1.17;;;14.60;90.10;;;;;;4974653;28;20908;-77
2023/09/06 02:26:43;;;;;;;0.93;0.70;;;14.50;90.60;;;;;;4987181;28;20117;-78
2023/09/06 02:29:11;;;;;;;2.35;0.80;;;14.50;90.90;;;;;;4989295;28;20038;-76
2023/09/06 02:31:38;;;;;;;0.90;0.80;;;14.50;92.00;;;;;;4984290;28;20058;-77
2023/09/06 02:34:04;;;;;;;1.90;0.90;;;14.50;93.60;;;;;;4986562;28;20046;-77
2023/09/06 02:36:30;;;;;;;1.00;0.90;;;14.50;96.90;;;;;;4980435;28;20477;-77
2023/09/06 02:39:01;;;;;;;1.25;0.90;;;14.50;97.10;;;;;;4975343;28;20042;-77
2023/09/06 02:41:27;;;;;;;1.33;1.20;;;14.50;96.80;;;;;;5001964;28;20078;-76
2023/09/06 02:43:52;;;;;;;2.03;1.33;;;14.50;99.90;;;;;;4989021;28;20039;-77
2023/09/06 02:46:18;;;;;;;3.10;1.30;;;14.50;99.90;;;;;;4970381;28;20054;-77
2023/09/06 02:48:46;;;;;;;1.85;1.30;;;14.50;99.90;;;;;;4984788;28;20509;-77
2023/09/06 02:51:15;;;;;;;1.90;1.70;;;14.50;99.90;;;;;;5000778;28;20050;-76
2023/09/06 02:53:46;;;;;;;1.90;1.23;;;14.40;99.90;;;;;;4967902;28;20049;-77
2023/09/06 02:56:14;;;;;;;1.65;1.27;;;14.40;99.90;;;;;;4973978;28;21009;-77
2023/09/06 02:58:42;;;;;;;1.83;1.10;;;14.40;99.90;;;;;;4966758;28;20038;-77
2023/09/06 03:01:19;;;;;;;2.80;1.65;;;14.40;99.90;;;;;;4966185;28;20042;-77
2023/09/06 03:03:47;;;;;;;1.52;1.35;;;14.30;99.90;;;;;;4999447;28;20045;-77
2023/09/06 03:06:17;;;;;;;1.50;1.10;;;14.30;99.90;;;;;;4973048;28;20504;-77
2023/09/06 03:08:45;;;;;;;1.48;1.10;;;14.30;99.90;;;;;;4999054;28;20042;-76
2023/09/06 03:11:14;;;;;;;3.67;1.30;;;14.20;99.90;;;;;;4976404;28;20039;-77
2023/09/06 03:13:45;;;;;;;1.80;1.50;;;14.20;99.90;;;;;;4980187;28;20052;-76
2023/09/06 03:16:13;;;;;;;1.85;1.38;;;14.10;99.90;;;;;;4985090;28;20038;-77
2023/09/06 03:18:42;;;;;;;1.73;1.25;;;14.20;99.90;;;;;;4976469;28;20465;-76
2023/09/06 03:21:08;;;;;;;2.22;1.30;;;14.10;99.90;;;;;;4982193;28;20623;-77
2023/09/06 03:23:35;;;;;;;2.97;1.55;;;14.10;99.90;;;;;;4990307;28;20048;-77
2023/09/06 03:26:01;;;;;;;3.30;1.98;;;14.00;99.90;;;;;;4985078;28;20070;-77
2023/09/06 03:28:28;;;;;;;1.80;1.30;;;14.00;99.90;;;;;;4985287;28;20139;-77
2023/09/06 03:30:58;;;;;;;3.75;2.05;;;14.00;99.90;;;;;;4985782;28;20069;-77
2023/09/06 03:33:28;;;;;;;1.60;1.35;;;14.00;99.90;;;;;;4998831;28;20607;-76
2023/09/06 03:35:53;;;;;;;2.75;2.05;;;14.00;99.90;;;;;;4986891;28;20042;-77
2023/09/06 03:38:25;;;;;;;3.00;2.10;;;14.00;99.90;;;;;;4984097;28;20405;-76
2023/09/06 03:40:50;;;;;;;5.03;2.17;;;14.00;99.90;;;;;;4973787;28;20031;-76
2023/09/06 03:43:19;;;;;;;4.32;2.17;;;14.00;99.90;;;;;;4967444;28;20457;-76
2023/09/06 03:45:51;;;;;;;3.15;1.98;;;14.00;99.90;;;;;;4991990;28;20047;-77
2023/09/06 03:48:20;;;;;;;2.90;2.30;;;14.00;99.90;;;;;;4965660;28;20042;-76
2023/09/06 03:50:47;;;;;;;2.60;2.15;;;14.00;99.90;;;;;;4990540;28;20042;-75
2023/09/06 03:53:14;;;;;;;2.83;2.10;;;14.00;99.90;;;;;;4969715;28;20049;-77
2023/09/06 03:55:41;;;;;;;2.55;1.90;;;14.00;99.90;;;;;;4987009;28;20050;-76
2023/09/06 03:58:07;;;;;;;3.30;2.45;;;14.00;99.90;;;;;;5007946;28;20049;-77
2023/09/06 04:00:34;;;;;;;2.90;2.28;;;14.00;99.90;;;;;;4988239;28;20030;-76
2023/09/06 04:02:59;;;;;;;4.35;2.10;;;14.00;99.90;;;;;;4987627;28;20065;-76
2023/09/06 04:05:26;;;;;;;4.28;2.35;;;14.00;99.90;;;;;;4987516;28;20038;-77
2023/09/06 04:07:59;;;;;;;2.75;2.08;;;14.00;99.90;;;;;;4977860;28;20057;-77
2023/09/06 04:10:36;;;;;;;2.40;1.80;;;14.00;99.90;;;;;;4991929;28;20037;-76
2023/09/06 04:13:02;;;;;;;5.90;2.42;;;14.00;99.90;;;;;;5004280;28;20112;-76
2023/09/06 04:15:29;;;;;;;3.78;2.10;;;13.90;99.90;;;;;;5003833;28;20050;-76
2023/09/06 04:17:57;;;;;;;2.30;2.10;;;14.00;99.90;;;;;;4986353;28;20047;-77
2023/09/06 04:20:35;;;;;;;4.35;2.20;;;14.00;99.90;;;;;;4982343;28;20043;-76
2023/09/06 04:23:05;;;;;;;6.00;2.70;;;14.00;99.90;;;;;;4981952;28;20541;-76
2023/09/06 04:25:34;;;;;;;4.85;2.80;;;14.00;99.90;;;;;;4986330;28;20035;-77
2023/09/06 04:28:07;;;;;;;5.35;3.45;;;14.00;99.90;;;;;;4979233;28;20041;-76
2023/09/06 04:30:36;;;;;;;4.43;3.30;;;14.00;99.90;;;;;;4977053;28;20149;-76
2023/09/06 04:33:03;;;;;;;8.27;3.30;;;14.00;99.90;;;;;;4976696;28;20077;-77
2023/09/06 04:35:34;;;;;;;8.02;4.75;;;14.10;99.90;;;;;;5003342;28;20046;-76
2023/09/06 04:38:02;;;;;;;6.30;4.28;;;14.10;99.90;;;;;;4988301;28;20646;-77
2023/09/06 04:40:29;;;;;;;5.57;4.20;;;14.10;99.90;;;;;;4990409;28;20140;-76
2023/09/06 04:42:55;;;;;;;7.40;4.03;;;14.10;99.90;;;;;;4972064;28;20045;-76
2023/09/06 04:45:20;;;;;;;6.78;4.13;;;14.20;99.90;;;;;;4988170;28;20038;-77
2023/09/06 04:47:46;;;;;;;4.80;4.10;;;14.30;99.90;;;;;;4988833;28;20038;-77
2023/09/06 04:50:12;;;;;;;5.43;3.83;;;14.40;99.90;;;;;;4990488;28;20515;-76
2023/09/06 04:52:50;;;;;;;4.57;3.30;;;14.30;99.90;;;;;;4986789;28;20240;-77
2023/09/06 04:55:19;;;;;;;4.13;2.88;;;14.30;99.90;;;;;;4987073;28;20380;-77
2023/09/06 04:57:46;;;;;;;3.95;3.03;;;14.30;99.90;;;;;;4969873;28;20034;-76
2023/09/06 05:00:23;;;;;;;4.97;3.33;;;14.30;99.90;;;;;;4988049;28;20043;-77
2023/09/06 05:02:53;;;;;;;4.63;3.45;;;14.20;99.90;;;;;;4986321;28;20042;-76
2023/09/06 05:05:21;;;;;;;5.20;3.78;;;14.20;99.90;;;;;;4976453;28;20050;-77
2023/09/06 05:07:46;;;;;;;5.90;3.42;;;14.20;99.90;;;;;;5000478;28;20378;-76
2023/09/06 05:10:13;;;;;;;4.53;3.72;;;14.10;99.90;;;;;;4982843;28;20288;-76
2023/09/06 05:12:39;;;;;;;5.20;3.97;;;14.10;99.90;;;;;;4987351;28;20038;-76
2023/09/06 05:15:06;;;;;;;5.65;3.67;;;14.10;99.90;;;;;;4970295;28;20524;-75
2023/09/06 05:17:32;;;;;;;4.57;3.53;;;14.10;99.90;;;;;;4981722;28;20512;-76
2023/09/06 05:20:31;;;;;;;7.30;3.47;;;14.10;99.90;;;;;;5002663;28;20043;-76
2023/09/06 05:23:12;;;;;;;6.35;3.65;;;14.10;99.90;;;;;;4988917;28;20413;-76
2023/09/06 05:25:39;;;;;;;6.15;3.88;;;14.00;99.90;;;;;;4961539;28;20125;-75
2023/09/06 05:28:09;;;;;;;6.85;4.88;;;14.10;99.90;;;;;;4964248;28;20049;-76
2023/09/06 05:30:40;;;;;;;6.22;4.80;;;14.10;99.90;;;;;;4979626;28;20073;-76
2023/09/06 05:33:06;;;;;;;8.65;5.15;;;14.20;99.90;;;;;;4984241;28;20069;-76
2023/09/06 05:35:32;;;;;;;6.80;5.05;;;14.40;99.90;;;;;;4975433;28;20117;-76
2023/09/06 05:37:57;;;;;;;6.97;5.32;;;14.50;99.90;;;;;;4989846;28;20457;-75
2023/09/06 05:40:23;;;;;;;7.18;5.03;;;14.60;99.90;;;;;;4975728;28;20405;-76
2023/09/06 05:42:53;;;;;;;6.47;4.60;;;14.60;99.90;;;;;;4985443;28;20089;-75
2023/09/06 05:45:20;;;;;;;7.38;4.78;;;14.80;99.90;;;;;;4987296;28;20057;-76
2023/09/06 05:47:46;;;;;;;6.50;4.65;;;14.80;99.90;;;;;;4979826;28;20085;-75
2023/09/06 05:50:12;;;;;;;6.00;4.53;;;14.90;99.90;;;;;;4966513;28;20255;-77
2023/09/06 05:52:38;;;;;;;7.47;4.70;;;15.10;99.90;;;;;;4965900;28;20056;-76
2023/09/06 05:55:04;;;;;;;6.80;5.53;;;15.20;99.90;;;;;;4982774;28;20125;-75
2023/09/06 05:57:34;;;;;;;6.18;4.88;;;15.50;99.90;;;;;;4992891;28;20117;-77
2023/09/06 06:00:01;;;;;;;8.48;4.75;;;15.70;99.90;;;;;;4985972;28;20042;-77
2023/09/06 06:02:29;;;;;;;5.90;4.63;;;16.00;99.90;;;;;;4981493;28;20082;-77
2023/09/06 06:04:56;;;;;;;6.45;4.35;;;16.20;99.90;;;;;;4986724;28;20081;-77
2023/09/06 06:07:21;;;;;;;6.25;4.28;;;16.40;99.90;;;;;;4982953;28;20572;-77
2023/09/06 06:09:48;;;;;;;6.43;4.32;;;16.60;99.90;;;;;;5002182;28;20042;-76
2023/09/06 06:12:15;;;;;;;6.25;4.00;;;16.80;99.90;;;;;;4984602;28;20046;-76
2023/09/06 06:14:41;;;;;;;5.82;4.05;;;16.90;99.90;;;;;;4976867;28;20050;-76
2023/09/06 06:17:09;;;;;;;7.25;3.95;;;17.00;99.90;;;;;;4998821;28;20037;-76
2023/09/06 06:19:35;;;;;;;9.82;3.78;;;17.10;99.90;;;;;;4984433;28;20125;-76
2023/09/06 06:22:04;;;;;;;11.25;5.32;;;17.10;99.90;;;;;;4983968;28;20031;-76
2023/09/06 06:24:33;;;;;;;7.10;3.47;;;17.20;99.90;;;;;;4975693;28;20042;-76
2023/09/06 06:26:58;;;;;;;6.43;3.72;;;17.20;99.90;;;;;;4985220;28;20048;-75
2023/09/06 06:29:24;;;;;;;6.85;3.97;;;17.20;99.90;;;;;;4986632;28;20102;-75
2023/09/06 06:31:50;;;;;;;7.15;4.13;;;17.20;99.90;;;;;;4988644;28;20054;-76
2023/09/06 06:34:18;;;;;;;5.28;3.95;;;17.20;99.90;;;;;;4970203;28;20046;-76
2023/09/06 06:36:45;;;;;;;4.15;3.30;;;17.20;99.90;;;;;;5001752;28;20046;-76
2023/09/06 06:39:12;;;;;;;8.50;3.67;;;17.20;99.90;;;;;;4982409;28;20038;-76
2023/09/06 06:41:38;;;;;;;6.43;4.15;;;17.20;99.90;;;;;;4963035;28;20489;-75
2023/09/06 06:44:04;;;;;;;4.45;3.58;;;17.20;99.90;;;;;;4982807;28;20034;-75
2023/09/06 06:46:35;;;;;;;7.32;3.30;;;17.20;99.90;;;;;;4984091;28;20412;-76
2023/09/06 06:49:04;;;;;;;4.72;3.58;;;17.40;99.90;;;;;;4981234;28;20045;-76
2023/09/06 06:51:35;;;;;;;4.22;3.13;;;17.30;99.90;;;;;;4982687;28;20129;-76
2023/09/06 06:54:19;;;;;;;4.55;3.50;;;17.30;99.90;;;;;;4988196;28;20034;-75
2023/09/06 06:56:45;;;;;;;3.72;2.83;;;17.40;99.90;;;;;;4980300;28;20571;-75
2023/09/06 06:59:12;;;;;;;3.67;3.10;;;17.50;99.90;;;;;;4968417;28;20041;-76
2023/09/06 07:01:37;;;;;;;7.32;3.80;;;17.50;99.90;;;;;;4983905;28;20042;-75
2023/09/06 07:04:06;;;;;;;5.22;3.42;;;17.60;99.90;;;;;;4979251;28;20038;-77
2023/09/06 07:06:32;;;;;;;4.85;3.15;;;17.70;99.90;;;;;;4966465;28;20140;-77
2023/09/06 07:08:58;;;;;;;5.63;3.15;;;17.70;99.90;;;;;;5000887;28;20457;-77
2023/09/06 07:11:24;;;;;;;4.93;3.45;;;17.70;99.90;;;;;;4968391;28;20133;-75
2023/09/06 07:13:51;;;;;;;3.83;3.00;;;17.80;93.30;;;;;;4986558;28;20046;-76
2023/09/06 07:16:18;;;;;;;4.45;3.22;;;17.90;77.20;;;;;;4982007;28;20296;-76
2023/09/06 07:18:47;;;;;;;4.13;3.13;;;17.90;55.70;;;;;;4966148;28;20101;-77
2023/09/06 07:21:14;;;;;;;4.00;3.05;;;17.90;37.90;;;;;;4986892;28;20042;-76
2023/09/06 07:23:40;;;;;;;4.72;2.92;;;18.00;23.20;;;;;;4981020;28;20034;-77
2023/09/06 07:26:06;;;;;;;3.92;3.00;;;18.00;13.80;;;;;;4974190;28;20038;-77
2023/09/06 07:28:40;;;;;;;6.15;2.60;;;18.10;4.70;;;;;;4985630;28;20042;-77
2023/09/06 07:31:07;;;;;;;4.30;2.70;;;18.10;1.00;;;;;;4997642;28;20122;-77
2023/09/06 07:33:33;;;;;;;5.75;3.15;;;18.20;1.00;;;;;;4966991;28;20086;-76
2023/09/06 07:35:59;;;;;;;4.20;2.13;;;18.30;1.00;;;;;;4983498;28;20663;-77
2023/09/06 07:38:24;;;;;;;5.45;2.53;;;18.40;1.00;;;;;;4981944;28;20117;-76
2023/09/06 07:40:57;;;;;;;4.45;2.78;;;18.50;1.00;;;;;;4958723;28;20073;-76
2023/09/06 07:43:23;;;;;;;4.32;2.33;;;18.60;1.00;;;;;;4982440;28;20600;-76
2023/09/06 07:45:49;;;;;;;3.58;2.97;;;18.70;1.00;;;;;;4964726;28;20537;-77
2023/09/06 07:48:18;;;;;;;3.22;2.20;;;18.80;1.00;;;;;;4983260;28;20658;-77
2023/09/06 07:50:43;;;;;;;2.90;2.30;;;19.00;1.00;;;;;;4968160;28;20045;-76
2023/09/06 07:53:09;;;;;;;4.03;2.10;;;19.20;1.00;;;;;;4980127;28;20053;-76
2023/09/06 07:55:41;;;;;;;5.38;2.30;;;19.20;1.00;;;;;;4980660;28;20126;-79
2023/09/06 07:58:08;;;;;;;2.97;1.98;;;19.30;1.00;;;;;;4980439;28;20034;-76
2023/09/06 08:00:36;;;;;;;5.47;2.28;;;19.40;1.00;;;;;;4989065;28;21591;-76
2023/09/06 08:03:02;;;;;;;4.15;2.00;;;19.50;1.00;;;;;;4979525;28;20042;-77
2023/09/06 08:05:29;;;;;;;4.22;2.20;;;19.60;1.00;;;;;;4978327;28;21086;-77
2023/09/06 08:07:54;;;;;;;2.40;2.00;;;19.70;99.90;;;;;;4959957;28;20042;-76
2023/09/06 08:10:21;;;;;;;3.88;1.98;;;19.70;99.90;;;;;;4992362;28;20047;-79
2023/09/06 08:12:47;;;;;;;6.00;2.05;;;19.90;99.90;;;;;;4997184;28;20038;-79
2023/09/06 08:15:13;;;;;;;2.92;1.95;;;20.00;99.90;;;;;;4978690;28;20681;-78
2023/09/06 08:17:39;;;;;;;2.97;1.95;;;20.10;99.90;;;;;;4966295;28;20124;-78
2023/09/06 08:20:08;;;;;;;3.60;2.10;;;20.10;99.90;;;;;;4998924;28;20038;-78
2023/09/06 08:22:35;;;;;;;3.47;1.92;;;20.20;99.90;;;;;;4991584;28;20129;-78
2023/09/06 08:25:05;;;;;;;2.20;1.90;;;20.40;99.90;;;;;;4982987;28;20133;-78
2023/09/06 08:27:30;;;;;;;2.15;1.60;;;20.50;99.90;;;;;;4982732;28;20042;-79
2023/09/06 08:29:56;;;;;;;2.33;1.73;;;20.60;99.90;;;;;;4982922;28;20065;-79
2023/09/06 08:32:22;;;;;;;2.47;1.73;;;20.60;99.90;;;;;;4984210;28;20046;-78
2023/09/06 08:34:49;;;;;;;2.83;1.80;;;20.70;83.60;;;;;;4988204;28;20085;-79
2023/09/06 08:37:14;;;;;;;2.58;1.92;;;20.80;50.30;;;;;;4985644;28;20062;-79
2023/09/06 08:39:40;;;;;;;3.72;2.15;;;20.90;1.00;;;;;;4972569;28;20142;-79
2023/09/06 08:42:07;;;;;;;3.30;1.65;;;21.00;1.00;;;;;;5000900;28;20088;-74
2023/09/06 08:44:35;;;;;;;2.88;1.55;;;21.10;1.00;;;;;;4982908;28;20305;-76
2023/09/06 08:47:04;;;;;;;4.63;1.50;;;21.20;1.00;;;;;;4971715;28;20054;-76
2023/09/06 08:49:30;;;;;;;3.65;1.90;;;21.30;1.00;;;;;;4985300;28;20509;-77
2023/09/06 08:51:58;;;;;;;3.25;1.60;;;21.40;99.90;;;;;;4982322;28;20484;-77
2023/09/06 08:54:25;;;;;;;3.20;1.50;;;21.50;99.90;;;;;;4990718;28;20441;-77
2023/09/06 08:56:52;;;;;;;2.67;1.73;;;21.70;99.90;;;;;;4993631;28;20124;-75
2023/09/06 08:59:19;;;;;;;3.75;2.05;;;21.90;99.90;;;;;;4987379;28;20130;-77
2023/09/06 09:01:45;;;;;;;3.38;1.77;;;22.00;99.90;;;;;;4988293;28;20670;-75
2023/09/06 09:04:12;;;;;;;2.75;1.65;;;22.20;99.90;;;;;;4982380;28;20038;-74
2023/09/06 09:06:47;;;;;;;3.78;1.58;;;22.40;99.90;;;;;;4984465;28;20042;-73
2023/09/06 09:09:14;;;;;;;3.70;1.55;;;22.50;99.90;;;;;;4969624;28;20085;-74
2023/09/06 09:11:44;;;;;;;1.95;1.63;;;22.70;99.90;;;;;;4988423;28;20034;-75
2023/09/06 09:14:21;;;;;;;2.63;1.50;;;22.80;99.90;;;;;;4983793;28;20080;-75
2023/09/06 09:16:58;;;;;;;3.00;1.70;;;23.00;99.90;;;;;;4968947;28;20457;-75
2023/09/06 09:19:25;;;;;;;1.40;1.30;;;23.20;99.90;;;;;;4987932;28;20488;-75
2023/09/06 09:21:51;;;;;;;2.63;1.50;;;23.50;99.90;;;;;;4985546;28;20034;-74
2023/09/06 09:24:28;;;;;;;2.38;1.60;;;23.70;59.80;;;;;;4995809;28;20375;-75
2023/09/06 09:26:56;;;;;;;2.13;1.60;;;24.00;1.00;;;;;;4986392;28;20042;-74
2023/09/06 09:29:22;;;;;;;2.42;1.45;;;24.30;1.00;;;;;;4987955;28;20046;-75
2023/09/06 09:31:48;;;;;;;2.78;1.67;;;24.60;1.00;;;;;;4979363;28;20054;-74
2023/09/06 09:34:14;;;;;;;2.45;1.70;;;25.40;1.00;;;;;;4980421;28;20034;-74
2023/09/06 09:36:53;;;;;;;3.45;1.50;;;27.00;1.00;;;;;;4983340;28;20448;-75
2023/09/06 09:39:24;;;;;;;2.58;1.65;;;28.80;1.00;;;;;;4981039;28;20038;-74
2023/09/06 09:41:50;;;;;;;2.40;1.45;;;30.10;1.00;;;;;;4985161;28;20038;-75
2023/09/06 09:44:19;;;;;;;2.47;1.80;;;31.30;1.00;;;;;;4980442;28;20035;-75
2023/09/06 09:46:46;;;;;;;5.47;1.58;;;32.00;1.00;;;;;;4983284;28;20543;-75
2023/09/06 09:49:13;;;;;;;2.05;1.55;;;32.80;1.00;;;;;;4985234;28;20034;-75
2023/09/06 09:51:40;;;;;;;2.92;1.50;;;33.50;1.00;;;;;;4964069;28;20037;-75
2023/09/06 09:54:10;;;;;;;3.70;2.70;;;34.10;1.00;;;;;;4972152;28;20093;-75
2023/09/06 09:56:41;;;;;;;3.70;1.80;;;34.90;1.00;;;;;;4964132;28;20116;-73
2023/09/06 09:59:08;;;;;;;3.38;1.40;;;35.60;1.00;;;;;;4974931;28;20042;-74
2023/09/06 10:01:33;;;;;;;2.25;1.77;;;36.00;1.00;;;;;;4980409;28;20193;-75
2023/09/06 10:04:05;;;;;;;2.00;1.48;;;36.50;1.00;;;;;;4982707;28;20137;-75
2023/09/06 10:06:32;;;;;;;3.00;1.50;;;37.00;1.00;;;;;;4985438;28;20038;-75
2023/09/06 10:09:07;;;;;;;3.25;1.55;;;37.50;1.00;;;;;;4983003;28;20081;-75
2023/09/06 10:11:34;;;;;;;2.72;1.20;;;38.00;1.00;;;;;;4980954;28;20121;-75
2023/09/06 10:14:04;;;;;;;1.50;1.38;;;38.20;1.00;;;;;;4978820;28;20113;-72
2023/09/06 10:16:31;;;;;;;1.63;1.23;;;38.30;1.00;;;;;;4981580;28;20053;-75
2023/09/06 10:18:57;;;;;;;2.72;1.75;;;38.40;1.00;;;;;;4974986;28;20043;-75
2023/09/06 10:21:24;;;;;;;1.75;1.30;;;38.40;1.00;;;;;;4984502;28;20044;-75
2023/09/06 10:23:50;;;;;;;3.95;1.50;;;38.60;1.00;;;;;;4966009;28;20142;-76
2023/09/06 10:26:26;;;;;;;1.77;1.20;;;38.70;1.00;;;;;;4965274;28;20035;-75
2023/09/06 10:28:56;;;;;;;2.40;1.05;;;39.00;1.00;;;;;;4992838;28;20060;-74
2023/09/06 10:31:45;;;;;;;1.88;1.13;;;39.30;1.00;;;;;;4981924;28;20054;-76
2023/09/06 10:34:12;;;;;;;4.78;1.00;;;39.40;1.00;;;;;;4977313;28;20047;-80
2023/09/06 10:36:58;;;;;;;2.20;1.38;;;39.30;1.00;;;;;;4998029;28;20070;-80
2023/09/06 10:39:26;;;;;;;1.50;0.95;;;39.30;1.00;;;;;;4977102;28;20042;-80
2023/09/06 10:42:11;;;;;;;1.80;1.20;;;39.40;1.00;;;;;;4976811;28;20038;-79
2023/09/06 10:44:55;;;;;;;1.77;1.17;;;39.90;1.00;;;;;;4973242;28;20149;-81
2023/09/06 10:47:35;;;;;;;2.88;1.33;;;40.00;1.00;;;;;;4995680;28;20065;-79
2023/09/06 10:50:14;;;;;;;1.00;0.90;;;40.00;1.00;;;;;;4981310;28;20046;-80
2023/09/06 10:52:44;;;;;;;2.53;1.10;;;40.40;1.00;;;;;;4992446;28;20109;-80
2023/09/06 10:55:13;;;;;;;1.15;0.98;;;40.70;1.00;;;;;;4976058;28;20630;-80
2023/09/06 10:57:58;;;;;;;2.35;1.40;;;40.90;1.00;;;;;;4979841;28;20047;-78
2023/09/06 11:00:31;;;;;;;1.40;1.10;;;41.20;1.00;;;;;;4970983;28;20932;-79
2023/09/06 11:03:06;;;;;;;1.33;1.23;;;41.40;1.00;;;;;;4960157;28;20105;-79
2023/09/06 11:05:35;;;;;;;1.33;1.23;;;41.80;1.00;;;;;;4981903;28;20122;-78
2023/09/06 11:08:02;;;;;;;2.38;1.20;;;42.00;1.00;;;;;;4976031;28;20050;-79
2023/09/06 11:10:28;;;;;;;2.35;1.05;;;42.10;1.00;;;;;;4972832;28;20045;-78
2023/09/06 11:12:55;;;;;;;1.52;1.10;;;42.30;1.00;;;;;;4973218;28;20042;-78
2023/09/06 11:15:24;;;;;;;1.88;1.08;;;42.50;1.00;;;;;;4974635;28;20049;-79
2023/09/06 11:17:53;;;;;;;1.67;1.10;;;42.70;1.00;;;;;;4980843;28;20041;-80
2023/09/06 11:20:20;;;;;;;1.38;1.05;;;42.80;1.00;;;;;;4974707;28;20057;-79
2023/09/06 11:22:56;;;;;;;1.65;1.13;;;43.00;1.00;;;;;;4968187;28;20040;-80
2023/09/06 11:25:23;;;;;;;0.85;0.77;;;43.00;1.00;;;;;;4997366;28;20038;-79
2023/09/06 11:27:50;;;;;;;1.20;1.10;;;43.00;1.00;;;;;;4981350;28;20054;-79
2023/09/06 11:30:21;;;;;;;2.17;1.13;;;43.20;1.00;;;;;;4999303;28;20428;-79
2023/09/06 11:32:48;;;;;;;1.90;1.23;;;43.30;1.00;;;;;;4983503;28;20119;-80
2023/09/06 11:35:15;;;;;;;1.33;1.10;;;43.70;1.00;;;;;;4969782;28;20054;-80
2023/09/06 11:37:49;;;;;;;1.17;1.05;;;44.20;1.00;;;;;;4989409;28;20078;-80
2023/09/06 11:40:15;;;;;;;1.80;1.10;;;44.50;1.00;;;;;;4984163;28;20405;-79
2023/09/06 11:42:43;;;;;;;1.27;1.10;;;44.70;1.00;;;;;;5000154;28;20039;-79
2023/09/06 11:45:12;;;;;;;0.82;0.73;;;44.80;1.00;;;;;;4985583;28;20053;-79
2023/09/06 11:47:39;;;;;;;1.20;1.00;;;44.80;1.00;;;;;;4983006;28;20097;-79
2023/09/06 11:50:09;;;;;;;1.70;1.00;;;44.90;1.00;;;;;;4983735;28;20035;-80
2023/09/06 11:52:35;;;;;;;0.85;0.80;;;45.00;1.00;;;;;;4982370;28;20073;-80
2023/09/06 11:55:08;;;;;;;2.03;1.20;;;45.00;1.00;;;;;;4986350;28;20077;-79
2023/09/06 11:57:37;;;;;;;1.45;0.90;;;45.10;1.00;;;;;;4969548;28;20054;-79
2023/09/06 12:00:27;;;;;;;2.85;0.60;;;45.00;1.00;;;;;;4994825;28;20509;-80
2023/09/06 12:03:13;;;;;;;1.02;0.70;;;45.00;1.00;;;;;;4974498;28;20046;-80
2023/09/06 12:05:44;;;;;;;1.85;0.75;;;45.20;1.00;;;;;;4975361;28;20061;-79
2023/09/06 12:08:15;;;;;;;1.02;0.63;;;45.40;1.00;;;;;;4968585;28;20037;-79
2023/09/06 12:10:49;;;;;;;1.20;0.90;;;45.30;1.00;;;;;;4974619;28;20030;-79
2023/09/06 12:13:16;;;;;;;1.00;0.90;;;45.40;1.00;;;;;;4980607;28;20053;-79
2023/09/06 12:15:43;;;;;;;2.30;0.88;;;45.60;1.00;;;;;;4962848;28;20049;-79
2023/09/06 12:18:09;;;;;;;1.10;0.70;;;45.90;1.00;;;;;;4982533;28;20188;-79
2023/09/06 12:20:34;;;;;;;1.40;1.00;;;46.00;1.00;;;;;;4980797;28;20053;-78
2023/09/06 12:23:05;;;;;;;0.80;0.80;;;46.20;1.00;;;;;;4979772;28;20512;-79
2023/09/06 12:25:31;;;;;;;1.48;0.95;;;46.30;1.00;;;;;;4992849;28;20065;-79
2023/09/06 12:27:56;;;;;;;2.08;1.20;;;46.00;1.00;;;;;;4994169;28;20472;-79
2023/09/06 12:30:23;;;;;;;0.80;0.80;;;45.80;1.00;;;;;;4999256;28;20630;-79
2023/09/06 12:32:48;;;;;;;0.85;0.80;;;45.30;1.00;;;;;;4984079;28;20133;-79
2023/09/06 12:35:14;;;;;;;1.40;0.90;;;45.40;1.00;;;;;;4979686;28;20142;-78
2023/09/06 12:37:40;;;;;;;2.88;0.90;;;45.60;1.00;;;;;;4979534;28;20096;-79
2023/09/06 12:40:13;;;;;;;2.45;1.00;;;45.70;1.00;;;;;;4995145;28;20042;-79
2023/09/06 12:42:47;;;;;;;2.55;0.90;;;45.90;1.00;;;;;;4981313;28;20046;-79
2023/09/06 12:45:26;;;;;;;1.33;0.87;;;46.10;1.00;;;;;;4987716;28;20046;-80
2023/09/06 12:47:52;;;;;;;1.02;0.93;;;46.30;1.00;;;;;;4975710;28;20297;-79
2023/09/06 12:50:18;;;;;;;0.93;0.90;;;46.40;99.90;;;;;;4986437;28;20117;-79
2023/09/06 12:52:44;;;;;;;1.20;0.85;;;46.50;99.90;;;;;;4978083;28;20113;-79
2023/09/06 12:55:09;;;;;;;0.93;0.80;;;46.40;99.90;;;;;;4984119;28;20437;-79
2023/09/06 12:57:36;;;;;;;1.15;0.93;;;46.40;99.90;;;;;;4985674;28;20041;-79